createdAt,value
2022-11-24T00:03:46.700Z,5.749999999999999
2022-11-24T00:19:03.709Z,5.74
2022-11-24T00:34:20.682Z,5.459999999999999
2022-11-24T00:49:36.665Z,5.1499999999999995
2022-11-24T01:04:53.688Z,5.059999999999999
2022-11-24T01:20:09.629Z,4.91
2022-11-24T01:35:25.623Z,4.68
2022-11-24T01:50:42.592Z,4.72
2022-11-24T02:06:00.573Z,4.609999999999999
2022-11-24T02:21:17.572Z,4.620000000000001
2022-11-24T02:36:33.548Z,4.29
2022-11-24T02:51:49.535Z,4.2
2022-11-24T03:07:06.572Z,4.279999999999999
2022-11-24T03:22:22.478Z,4.22
2022-11-24T03:37:38.503Z,4.410000000000001
2022-11-24T03:52:55.438Z,4.6
2022-11-24T04:08:13.464Z,4.630000000000001
2022-11-24T04:23:29.412Z,4.570000000000001
2022-11-24T04:39:23.026Z,4.530000000000001
2022-11-24T04:54:01.377Z,4.47
2022-11-24T05:09:18.405Z,4.609999999999999
2022-11-24T05:24:34.497Z,4.33
2022-11-24T05:39:51.382Z,4.540000000000001
2022-11-24T05:55:08.338Z,4.480000000000001
2022-11-24T06:10:25.336Z,4.36
2022-11-24T06:25:41.320Z,4.47
2022-11-24T06:40:57.315Z,4.390000000000001
2022-11-24T06:56:16.202Z,4.42
2022-11-24T07:11:34.300Z,4.29
2022-11-24T07:26:50.227Z,4.450000000000001
2022-11-24T07:42:06.254Z,4.639999999999999
2022-11-24T07:57:22.249Z,4.920000000000001
2022-11-24T08:12:39.183Z,5.050000000000001
2022-11-24T08:27:56.193Z,5.5
2022-11-24T08:43:13.146Z,6.03
2022-11-24T08:58:29.172Z,5.99
2022-11-24T09:13:46.111Z,6.41
2022-11-24T09:29:02.126Z,6.71
2022-11-24T09:44:18.071Z,6.869999999999999
2022-11-24T09:59:35.307Z,6.869999999999999
2022-11-24T10:14:53.038Z,6.989999999999999
2022-11-24T10:30:10.010Z,7.28
2022-11-24T10:45:25.974Z,7.55
2022-11-24T11:00:42.016Z,7.460000000000001
2022-11-24T11:16:00.021Z,7.700000000000002
2022-11-24T11:31:19.254Z,7.68
2022-11-24T11:46:32.010Z,7.890000000000001
2022-11-24T12:01:47.906Z,8.22
2022-11-24T12:17:05.854Z,8.59
2022-11-24T12:32:22.832Z,8.67
2022-11-24T12:47:39.843Z,8.85
2022-11-24T13:02:55.870Z,9.25
2022-11-24T13:18:12.858Z,10.03
2022-11-24T13:33:28.753Z,9.63437640255066
2022-11-24T13:48:44.748Z,9.32000572588521
2022-11-24T14:04:29.442Z,8.42925331456542
2022-11-24T14:19:19.705Z,8.925323842546272
2022-11-24T14:34:37.965Z,9.822840168925602
2022-11-24T14:49:52.726Z,8.778326702911352
2022-11-24T15:05:04.869Z,9.689999999999998
2022-11-24T15:20:20.601Z,9.049999999999999
2022-11-24T15:21:02.445Z,9.049999999999999
2022-11-24T15:35:38.584Z,8.760000000000002
2022-11-24T15:50:55.566Z,8.45
2022-11-24T16:06:12.517Z,8.259999999999998
2022-11-24T16:21:28.500Z,7.96
2022-11-24T16:36:44.488Z,7.779999999999999
2022-11-24T16:52:00.503Z,7.53
2022-11-24T17:07:19.473Z,7.470000000000001
2022-11-24T17:22:35.404Z,7.1000000000000005
2022-11-24T17:37:51.414Z,6.88
2022-11-24T17:53:07.383Z,6.81
2022-11-24T18:08:24.356Z,6.76
2022-11-24T18:23:40.346Z,6.6000000000000005
2022-11-24T18:38:57.354Z,6.430000000000001
2022-11-24T18:54:14.286Z,6.389999999999999
2022-11-24T19:09:31.282Z,6.41
2022-11-24T19:24:47.261Z,6.430000000000001
2022-11-24T19:40:03.293Z,6.53
2022-11-24T19:55:19.212Z,6.420000000000001
2022-11-24T20:10:36.216Z,6.340000000000001
2022-11-24T20:25:53.197Z,6.799999999999999
2022-11-24T20:41:10.212Z,6.45
2022-11-24T20:56:26.167Z,6.22
2022-11-24T21:11:43.135Z,6.260000000000001
2022-11-24T21:26:59.131Z,6.23
2022-11-24T21:42:15.143Z,6.32
2022-11-24T21:57:31.117Z,6.07
2022-11-24T22:12:48.070Z,6.269999999999999
2022-11-24T22:28:05.089Z,6.49
2022-11-24T22:43:23.223Z,6.11
2022-11-24T22:58:38.071Z,6.08
2022-11-24T23:13:55.014Z,5.89
2022-11-24T23:29:11.031Z,5.98
2022-11-24T23:44:26.952Z,5.9
2022-11-24T23:59:43.928Z,6.089999999999999
